Aberdeen, Ohio
Current Conditions -  °F | °C
As of 9:15 PM on Wednesday 17 Dec 2014 (Local Time) from KFGX Reporting Station
Overcast Overcast  
Wind Chill: 21°   Ceiling: 1800
Heat Index: 30°   Visibility: 10mi
Dew Point: 23°   Wind: 10mph
Humidity: 77%   Direction: 290°WNW
Pressure: 30.26"   Gusts: NA
Location:  38.66°N, 83.76°W
Report Text: KFGX 180215Z AUTO 29009KT 10SM OVC018 M01/M05 A3026 RMK AO2 T10131048
Loading
Personal Weather Stations






























Interactive Weather Map New forecast layout! Learn more

10-Day Weather Forecast

Advertisements
Track Severe Weather on mobile